Aérodrome :
LOGIN :

S'inscrire | Disclaimer

   EN    FR    IT 

 










Légende :    VFR   VFR Marginal   IFR   IFR Intensif   IFR Très Intensif
Visi : 
Plafond : 
>= 8 km
>= 3000ft
5 à 8 km
1000 à 3000 ft
1500m à 5 km
500 à 1000 ft
800 à 1500m
200 à 500 ft
< 800m
< 200 ft
Symboles :   Orages  Brouillard  Fortes neiges  Fortes précipitations  Vent > 20 kt
SIGMETs :   Divers  Orages  Givrage  Turbulence  Onde Orograph.  Cendres Volcan.






- Altitude de l'aérodrome : 75 ft
- Code IATA : YEO


EGDY - RNAS Yeovilton

DERNIER METAR :
  • 171250Z 29014KT 9999 VCSH FEW025 SCT030 BKN055 09/05 Q1018 TEMPO 7000 -SHRA SCT035 RMK BLU TEMPO WHT

METARs EXPIRÉS :
  • 171220Z 31014KT 9999 VCSH FEW020 SCT022 BKN055 10/04 Q1017 TEMPO 4000 SHRA SCT022 RMK WHT TEMPO GRN
  • 171150Z 30014KT 9999 // FEW025 SCT040 BKN050 10/05 Q1017 TEMPO 4000 SHRA SCT022 RMK BLU TEMPO GRN
  • 171120Z 30014KT 9999 // FEW025 BKN050 09/05 Q1018 TEMPO 4000 SHRA SCT022 RMK BLU TEMPO GRN
  • 171105Z 29014KT 9999 VCSH FEW022 SCT025 08/06 Q1018 TEMPO 4000 SHRA SCT022 RMK BLU TEMPO GRN
  • 171020Z 31013KT 9999 // FEW022 SCT025 08/04 Q1018 TEMPO 7000 -SHRA SCT025 RMK BLU TEMPO WHT
  • 170950Z 30014KT 9999 -SHRA FEW025 BKN050 08/03 Q1018 TEMPO 7000 -SHRA SCT025 RMK BLU TEMPO WHT
  • 170920Z 31015KT 9999 FEW025 SCT060 09/04 Q1018 NOSIG RMK BLU BLU

TAF COR TAF EGDY
Valide du 17 à 12h jusqu'au 17 à 21h UTC


171104Z 1712/1721 31010G20KT 9999 SCT030
TEMPO 1712/1718 31010G25KT 4000 SHRA SCT022



MET'MAP, la Météo Aéronautique d'un coup d'oeil ! - Copyright ORBIFLY Décembre 2007 - Disclaimer

ORBIFLY MET'MAP TEAM :

Programmation & Développement : Alexandra Zaïnal
Sur une idée originale de : Baudouin d'Aumeries
Soutien technique & logistique : Manuel Goepfert
Assistance : Marc-Olivier Méhu




SOURCES & CREDITS :

   NOAA